sensor_id;sensor_type;location;lat;lon;timestamp;temperature;humidity
24814;DHT22;12904;50.088;11.414;2023-09-12T00:02:04;15.10;99.90
24814;DHT22;12904;50.088;11.414;2023-09-12T00:04:30;15.10;99.90
24814;DHT22;12904;50.088;11.414;2023-09-12T00:06:55;15.10;99.90
24814;DHT22;12904;50.088;11.414;2023-09-12T00:09:21;15.10;99.90
24814;DHT22;12904;50.088;11.414;2023-09-12T00:11:47;15.10;99.90
24814;DHT22;12904;50.088;11.414;2023-09-12T00:14:17;15.10;99.90
24814;DHT22;12904;50.088;11.414;2023-09-12T00:16:43;15.00;99.90
24814;DHT22;12904;50.088;11.414;2023-09-12T00:19:09;15.00;99.90
24814;DHT22;12904;50.088;11.414;2023-09-12T00:21:34;14.90;99.90
24814;DHT22;12904;50.088;11.414;2023-09-12T00:24:00;14.80;99.90
24814;DHT22;12904;50.088;11.414;2023-09-12T00:26:26;14.70;99.90
24814;DHT22;12904;50.088;11.414;2023-09-12T00:28:51;14.70;99.90
24814;DHT22;12904;50.088;11.414;2023-09-12T00:31:17;14.60;99.90
24814;DHT22;12904;50.088;11.414;2023-09-12T00:33:43;14.60;99.90
24814;DHT22;12904;50.088;11.414;2023-09-12T00:36:08;14.60;99.90
24814;DHT22;12904;50.088;11.414;2023-09-12T00:38:34;14.60;99.90
24814;DHT22;12904;50.088;11.414;2023-09-12T00:40:59;14.60;99.90
24814;DHT22;12904;50.088;11.414;2023-09-12T00:43:25;14.70;99.90
24814;DHT22;12904;50.088;11.414;2023-09-12T00:45:51;14.60;99.90
24814;DHT22;12904;50.088;11.414;2023-09-12T00:48:17;14.60;99.90
24814;DHT22;12904;50.088;11.414;2023-09-12T00:50:46;14.60;99.90
24814;DHT22;12904;50.088;11.414;2023-09-12T00:53:13;14.60;99.90
24814;DHT22;12904;50.088;11.414;2023-09-12T00:55:44;14.60;99.90
24814;DHT22;12904;50.088;11.414;2023-09-12T00:58:11;14.60;99.90
24814;DHT22;12904;50.088;11.414;2023-09-12T01:00:36;14.60;99.90
24814;DHT22;12904;50.088;11.414;2023-09-12T01:03:02;14.60;99.90
24814;DHT22;12904;50.088;11.414;2023-09-12T01:05:29;14.60;99.90
24814;DHT22;12904;50.088;11.414;2023-09-12T01:07:55;14.60;99.90
24814;DHT22;12904;50.088;11.414;2023-09-12T01:10:21;14.60;99.90
24814;DHT22;12904;50.088;11.414;2023-09-12T01:12:46;14.60;99.90
24814;DHT22;12904;50.088;11.414;2023-09-12T01:15:12;14.60;99.90
24814;DHT22;12904;50.088;11.414;2023-09-12T01:17:42;14.60;99.90
24814;DHT22;12904;50.088;11.414;2023-09-12T01:20:46;14.60;99.90
24814;DHT22;12904;50.088;11.414;2023-09-12T01:26:03;14.60;99.90
24814;DHT22;12904;50.088;11.414;2023-09-12T01:28:38;14.50;99.90
24814;DHT22;12904;50.088;11.414;2023-09-12T01:31:07;14.60;99.90
24814;DHT22;12904;50.088;11.414;2023-09-12T01:33:33;14.60;99.90
24814;DHT22;12904;50.088;11.414;2023-09-12T01:35:59;14.60;99.90
24814;DHT22;12904;50.088;11.414;2023-09-12T01:38:25;14.60;99.90
24814;DHT22;12904;50.088;11.414;2023-09-12T01:40:52;14.60;99.90
24814;DHT22;12904;50.088;11.414;2023-09-12T01:43:21;14.50;99.90
24814;DHT22;12904;50.088;11.414;2023-09-12T01:45:50;14.40;99.90
24814;DHT22;12904;50.088;11.414;2023-09-12T01:48:21;14.30;99.90
24814;DHT22;12904;50.088;11.414;2023-09-12T01:50:48;14.20;99.90
24814;DHT22;12904;50.088;11.414;2023-09-12T01:53:15;14.10;99.90
24814;DHT22;12904;50.088;11.414;2023-09-12T01:55:44;14.00;99.90
24814;DHT22;12904;50.088;11.414;2023-09-12T01:58:12;14.00;99.90
24814;DHT22;12904;50.088;11.414;2023-09-12T02:00:39;14.00;99.90
24814;DHT22;12904;50.088;11.414;2023-09-12T02:03:05;14.00;99.90
24814;DHT22;12904;50.088;11.414;2023-09-12T02:05:30;14.00;99.90
24814;DHT22;12904;50.088;11.414;2023-09-12T02:07:56;14.00;99.90
24814;DHT22;12904;50.088;11.414;2023-09-12T02:10:22;14.00;99.90
24814;DHT22;12904;50.088;11.414;2023-09-12T02:12:47;14.00;99.90
24814;DHT22;12904;50.088;11.414;2023-09-12T02:15:13;14.00;99.90
24814;DHT22;12904;50.088;11.414;2023-09-12T02:17:40;14.00;99.90
24814;DHT22;12904;50.088;11.414;2023-09-12T02:20:07;14.00;99.90
24814;DHT22;12904;50.088;11.414;2023-09-12T02:22:34;13.90;99.90
24814;DHT22;12904;50.088;11.414;2023-09-12T02:24:59;13.90;99.90
24814;DHT22;12904;50.088;11.414;2023-09-12T02:27:25;13.80;99.90
24814;DHT22;12904;50.088;11.414;2023-09-12T02:29:50;13.70;99.90
24814;DHT22;12904;50.088;11.414;2023-09-12T02:32:16;13.70;99.90
24814;DHT22;12904;50.088;11.414;2023-09-12T02:34:42;13.60;99.90
24814;DHT22;12904;50.088;11.414;2023-09-12T02:37:07;13.60;99.90
24814;DHT22;12904;50.088;11.414;2023-09-12T02:39:33;13.50;99.90
24814;DHT22;12904;50.088;11.414;2023-09-12T02:41:58;13.50;99.90
24814;DHT22;12904;50.088;11.414;2023-09-12T02:44:24;13.50;99.90
24814;DHT22;12904;50.088;11.414;2023-09-12T02:46:50;13.50;99.90
24814;DHT22;12904;50.088;11.414;2023-09-12T02:49:16;13.50;99.90
24814;DHT22;12904;50.088;11.414;2023-09-12T02:51:42;13.50;99.90
24814;DHT22;12904;50.088;11.414;2023-09-12T02:54:07;13.40;99.90
24814;DHT22;12904;50.088;11.414;2023-09-12T02:56:33;13.40;99.90
24814;DHT22;12904;50.088;11.414;2023-09-12T02:58:59;13.40;99.90
24814;DHT22;12904;50.088;11.414;2023-09-12T03:01:25;13.40;99.90
24814;DHT22;12904;50.088;11.414;2023-09-12T03:03:53;13.30;99.90
24814;DHT22;12904;50.088;11.414;2023-09-12T03:06:19;13.40;99.90
24814;DHT22;12904;50.088;11.414;2023-09-12T03:08:45;13.40;99.90
24814;DHT22;12904;50.088;11.414;2023-09-12T03:11:11;13.40;99.90
24814;DHT22;12904;50.088;11.414;2023-09-12T03:13:39;13.40;99.90
24814;DHT22;12904;50.088;11.414;2023-09-12T03:16:04;13.30;99.90
24814;DHT22;12904;50.088;11.414;2023-09-12T03:18:30;13.40;99.90
24814;DHT22;12904;50.088;11.414;2023-09-12T03:20:56;13.30;99.90
24814;DHT22;12904;50.088;11.414;2023-09-12T03:23:22;13.30;99.90
24814;DHT22;12904;50.088;11.414;2023-09-12T03:25:47;13.30;99.90
24814;DHT22;12904;50.088;11.414;2023-09-12T03:28:13;13.30;99.90
24814;DHT22;12904;50.088;11.414;2023-09-12T03:30:39;13.20;99.90
24814;DHT22;12904;50.088;11.414;2023-09-12T03:33:05;13.10;99.90
24814;DHT22;12904;50.088;11.414;2023-09-12T03:35:34;13.10;99.90
24814;DHT22;12904;50.088;11.414;2023-09-12T03:38:00;13.10;99.90
24814;DHT22;12904;50.088;11.414;2023-09-12T03:40:28;13.10;99.90
24814;DHT22;12904;50.088;11.414;2023-09-12T03:42:55;13.00;99.90
24814;DHT22;12904;50.088;11.414;2023-09-12T03:45:21;13.00;99.90
24814;DHT22;12904;50.088;11.414;2023-09-12T03:47:47;13.00;99.90
24814;DHT22;12904;50.088;11.414;2023-09-12T03:50:13;13.00;99.90
24814;DHT22;12904;50.088;11.414;2023-09-12T03:52:41;13.00;99.90
24814;DHT22;12904;50.088;11.414;2023-09-12T03:55:07;13.00;99.90
24814;DHT22;12904;50.088;11.414;2023-09-12T03:57:33;12.90;99.90
24814;DHT22;12904;50.088;11.414;2023-09-12T03:59:59;12.90;99.90
24814;DHT22;12904;50.088;11.414;2023-09-12T04:02:24;12.90;99.90
24814;DHT22;12904;50.088;11.414;2023-09-12T04:04:50;12.90;99.90
24814;DHT22;12904;50.088;11.414;2023-09-12T04:07:17;12.90;99.90
24814;DHT22;12904;50.088;11.414;2023-09-12T04:09:43;12.90;99.90
24814;DHT22;12904;50.088;11.414;2023-09-12T04:12:08;12.90;99.90
24814;DHT22;12904;50.088;11.414;2023-09-12T04:14:35;12.90;99.90
24814;DHT22;12904;50.088;11.414;2023-09-12T04:17:01;12.90;99.90
24814;DHT22;12904;50.088;11.414;2023-09-12T04:19:26;12.80;99.90
24814;DHT22;12904;50.088;11.414;2023-09-12T04:21:52;12.80;99.90
24814;DHT22;12904;50.088;11.414;2023-09-12T04:24:18;12.80;99.90
24814;DHT22;12904;50.088;11.414;2023-09-12T04:26:44;12.80;99.90
24814;DHT22;12904;50.088;11.414;2023-09-12T04:29:10;12.80;99.90
24814;DHT22;12904;50.088;11.414;2023-09-12T04:31:35;12.80;99.90
24814;DHT22;12904;50.088;11.414;2023-09-12T04:34:01;12.80;99.90
24814;DHT22;12904;50.088;11.414;2023-09-12T04:36:27;12.80;99.90
24814;DHT22;12904;50.088;11.414;2023-09-12T04:38:52;12.80;99.90
24814;DHT22;12904;50.088;11.414;2023-09-12T04:41:18;12.80;99.90
24814;DHT22;12904;50.088;11.414;2023-09-12T04:43:44;12.80;99.90
24814;DHT22;12904;50.088;11.414;2023-09-12T04:46:10;12.80;99.90
24814;DHT22;12904;50.088;11.414;2023-09-12T04:48:37;12.70;99.90
24814;DHT22;12904;50.088;11.414;2023-09-12T04:51:02;12.70;99.90
24814;DHT22;12904;50.088;11.414;2023-09-12T04:53:28;12.70;99.90
24814;DHT22;12904;50.088;11.414;2023-09-12T04:56:00;12.60;99.90
24814;DHT22;12904;50.088;11.414;2023-09-12T04:58:26;12.60;99.90
24814;DHT22;12904;50.088;11.414;2023-09-12T05:00:51;12.60;99.90
24814;DHT22;12904;50.088;11.414;2023-09-12T05:03:17;12.60;99.90
24814;DHT22;12904;50.088;11.414;2023-09-12T05:05:46;12.70;99.90
24814;DHT22;12904;50.088;11.414;2023-09-12T05:08:12;12.70;99.90
24814;DHT22;12904;50.088;11.414;2023-09-12T05:10:38;12.70;99.90
24814;DHT22;12904;50.088;11.414;2023-09-12T05:13:04;12.80;99.90
24814;DHT22;12904;50.088;11.414;2023-09-12T05:15:30;12.90;99.90
24814;DHT22;12904;50.088;11.414;2023-09-12T05:17:56;13.00;99.90
24814;DHT22;12904;50.088;11.414;2023-09-12T05:20:22;13.10;99.90
24814;DHT22;12904;50.088;11.414;2023-09-12T05:22:47;13.10;99.90
24814;DHT22;12904;50.088;11.414;2023-09-12T05:25:13;13.20;99.90
24814;DHT22;12904;50.088;11.414;2023-09-12T05:27:39;13.30;99.90
24814;DHT22;12904;50.088;11.414;2023-09-12T05:30:05;13.30;99.90
24814;DHT22;12904;50.088;11.414;2023-09-12T05:32:31;13.30;99.90
24814;DHT22;12904;50.088;11.414;2023-09-12T05:34:56;13.30;99.90
24814;DHT22;12904;50.088;11.414;2023-09-12T05:37:22;13.40;99.90
24814;DHT22;12904;50.088;11.414;2023-09-12T05:39:48;13.40;99.90
24814;DHT22;12904;50.088;11.414;2023-09-12T05:42:13;13.40;99.90
24814;DHT22;12904;50.088;11.414;2023-09-12T05:44:41;13.50;99.90
24814;DHT22;12904;50.088;11.414;2023-09-12T05:47:07;13.50;99.90
24814;DHT22;12904;50.088;11.414;2023-09-12T05:49:33;13.60;99.90
24814;DHT22;12904;50.088;11.414;2023-09-12T05:51:59;13.70;99.90
24814;DHT22;12904;50.088;11.414;2023-09-12T05:54:25;13.70;99.90
24814;DHT22;12904;50.088;11.414;2023-09-12T05:56:51;13.90;99.90
24814;DHT22;12904;50.088;11.414;2023-09-12T05:59:18;14.00;99.90
24814;DHT22;12904;50.088;11.414;2023-09-12T06:01:43;14.00;99.90
24814;DHT22;12904;50.088;11.414;2023-09-12T06:04:09;14.00;99.90
24814;DHT22;12904;50.088;11.414;2023-09-12T06:06:35;14.10;99.90
24814;DHT22;12904;50.088;11.414;2023-09-12T06:09:00;14.20;99.90
24814;DHT22;12904;50.088;11.414;2023-09-12T06:11:26;14.30;99.90
24814;DHT22;12904;50.088;11.414;2023-09-12T06:13:52;14.30;99.90
24814;DHT22;12904;50.088;11.414;2023-09-12T06:16:17;14.40;99.90
24814;DHT22;12904;50.088;11.414;2023-09-12T06:18:43;14.50;99.90
24814;DHT22;12904;50.088;11.414;2023-09-12T06:21:09;14.60;99.90
24814;DHT22;12904;50.088;11.414;2023-09-12T06:23:35;14.60;99.90
24814;DHT22;12904;50.088;11.414;2023-09-12T06:26:00;14.70;99.90
24814;DHT22;12904;50.088;11.414;2023-09-12T06:28:27;14.80;99.90
24814;DHT22;12904;50.088;11.414;2023-09-12T06:30:53;14.90;99.90
24814;DHT22;12904;50.088;11.414;2023-09-12T06:33:18;15.00;99.90
24814;DHT22;12904;50.088;11.414;2023-09-12T06:35:48;15.00;99.90
24814;DHT22;12904;50.088;11.414;2023-09-12T06:38:13;15.10;99.90
24814;DHT22;12904;50.088;11.414;2023-09-12T06:40:39;15.20;99.90
24814;DHT22;12904;50.088;11.414;2023-09-12T06:43:05;15.20;99.90
24814;DHT22;12904;50.088;11.414;2023-09-12T06:45:30;15.30;99.90
24814;DHT22;12904;50.088;11.414;2023-09-12T06:47:58;15.50;99.90
24814;DHT22;12904;50.088;11.414;2023-09-12T06:50:23;15.60;99.90
24814;DHT22;12904;50.088;11.414;2023-09-12T06:52:49;15.70;99.90
24814;DHT22;12904;50.088;11.414;2023-09-12T06:55:15;15.70;99.90
24814;DHT22;12904;50.088;11.414;2023-09-12T06:57:40;15.80;99.90
24814;DHT22;12904;50.088;11.414;2023-09-12T07:00:07;15.90;99.90
24814;DHT22;12904;50.088;11.414;2023-09-12T07:02:33;16.00;99.90
24814;DHT22;12904;50.088;11.414;2023-09-12T07:04:58;16.10;99.90
24814;DHT22;12904;50.088;11.414;2023-09-12T07:07:24;16.20;99.90
24814;DHT22;12904;50.088;11.414;2023-09-12T07:09:50;16.30;99.90
24814;DHT22;12904;50.088;11.414;2023-09-12T07:12:15;16.30;99.90
24814;DHT22;12904;50.088;11.414;2023-09-12T07:14:41;16.40;99.90
24814;DHT22;12904;50.088;11.414;2023-09-12T07:17:07;16.50;99.90
24814;DHT22;12904;50.088;11.414;2023-09-12T07:19:33;16.70;99.90
24814;DHT22;12904;50.088;11.414;2023-09-12T07:21:58;16.70;99.90
24814;DHT22;12904;50.088;11.414;2023-09-12T07:24:27;16.80;99.90
24814;DHT22;12904;50.088;11.414;2023-09-12T07:26:53;16.90;99.90
24814;DHT22;12904;50.088;11.414;2023-09-12T07:29:19;17.00;99.90
24814;DHT22;12904;50.088;11.414;2023-09-12T07:31:44;17.10;99.90
24814;DHT22;12904;50.088;11.414;2023-09-12T07:34:10;17.20;99.90
24814;DHT22;12904;50.088;11.414;2023-09-12T07:36:37;17.30;99.90
24814;DHT22;12904;50.088;11.414;2023-09-12T07:39:03;17.40;99.90
24814;DHT22;12904;50.088;11.414;2023-09-12T07:41:30;17.50;99.90
24814;DHT22;12904;50.088;11.414;2023-09-12T07:43:55;17.60;99.90
24814;DHT22;12904;50.088;11.414;2023-09-12T07:46:21;17.70;99.90
24814;DHT22;12904;50.088;11.414;2023-09-12T07:48:47;17.80;99.90
24814;DHT22;12904;50.088;11.414;2023-09-12T07:51:14;18.00;99.90
24814;DHT22;12904;50.088;11.414;2023-09-12T07:53:41;18.10;99.90
24814;DHT22;12904;50.088;11.414;2023-09-12T07:56:08;18.30;99.90
24814;DHT22;12904;50.088;11.414;2023-09-12T07:58:35;18.40;99.90
24814;DHT22;12904;50.088;11.414;2023-09-12T08:01:08;18.50;99.90
24814;DHT22;12904;50.088;11.414;2023-09-12T08:03:34;18.70;99.90
24814;DHT22;12904;50.088;11.414;2023-09-12T08:06:00;18.80;99.90
24814;DHT22;12904;50.088;11.414;2023-09-12T08:08:27;19.00;99.90
24814;DHT22;12904;50.088;11.414;2023-09-12T08:10:52;19.10;99.90
24814;DHT22;12904;50.088;11.414;2023-09-12T08:13:18;19.20;99.90
24814;DHT22;12904;50.088;11.414;2023-09-12T08:15:44;19.30;99.90
24814;DHT22;12904;50.088;11.414;2023-09-12T08:18:10;19.40;99.90
24814;DHT22;12904;50.088;11.414;2023-09-12T08:20:36;19.60;99.90
24814;DHT22;12904;50.088;11.414;2023-09-12T08:23:01;19.70;99.90
24814;DHT22;12904;50.088;11.414;2023-09-12T08:25:27;19.80;99.90
24814;DHT22;12904;50.088;11.414;2023-09-12T08:27:53;20.00;99.90
24814;DHT22;12904;50.088;11.414;2023-09-12T08:30:18;20.10;99.90
24814;DHT22;12904;50.088;11.414;2023-09-12T08:32:44;20.30;99.90
24814;DHT22;12904;50.088;11.414;2023-09-12T08:35:11;20.40;99.90
24814;DHT22;12904;50.088;11.414;2023-09-12T08:37:38;20.60;99.90
24814;DHT22;12904;50.088;11.414;2023-09-12T08:40:05;20.70;99.90
24814;DHT22;12904;50.088;11.414;2023-09-12T08:42:43;20.90;99.90
24814;DHT22;12904;50.088;11.414;2023-09-12T08:45:13;21.00;99.90
24814;DHT22;12904;50.088;11.414;2023-09-12T08:47:45;21.20;99.90
24814;DHT22;12904;50.088;11.414;2023-09-12T08:50:12;21.30;99.90
24814;DHT22;12904;50.088;11.414;2023-09-12T08:52:40;21.40;99.90
24814;DHT22;12904;50.088;11.414;2023-09-12T08:55:08;21.50;99.90
24814;DHT22;12904;50.088;11.414;2023-09-12T08:57:36;21.70;99.90
24814;DHT22;12904;50.088;11.414;2023-09-12T09:00:04;21.80;99.90
24814;DHT22;12904;50.088;11.414;2023-09-12T09:02:42;22.10;99.90
24814;DHT22;12904;50.088;11.414;2023-09-12T09:05:10;22.30;99.90
24814;DHT22;12904;50.088;11.414;2023-09-12T09:07:40;22.60;99.90
24814;DHT22;12904;50.088;11.414;2023-09-12T09:10:14;23.20;99.90
24814;DHT22;12904;50.088;11.414;2023-09-12T09:12:40;24.20;99.90
24814;DHT22;12904;50.088;11.414;2023-09-12T09:15:28;25.50;99.90
24814;DHT22;12904;50.088;11.414;2023-09-12T09:17:57;26.90;99.90
24814;DHT22;12904;50.088;11.414;2023-09-12T09:20:32;27.80;99.90
24814;DHT22;12904;50.088;11.414;2023-09-12T09:23:07;28.30;99.90
24814;DHT22;12904;50.088;11.414;2023-09-12T09:25:36;28.50;99.90
24814;DHT22;12904;50.088;11.414;2023-09-12T09:28:05;28.50;99.90
24814;DHT22;12904;50.088;11.414;2023-09-12T09:30:50;28.10;99.90
24814;DHT22;12904;50.088;11.414;2023-09-12T09:33:17;28.10;99.90
24814;DHT22;12904;50.088;11.414;2023-09-12T09:35:45;27.90;99.90
24814;DHT22;12904;50.088;11.414;2023-09-12T09:38:11;27.60;99.90
24814;DHT22;12904;50.088;11.414;2023-09-12T09:40:45;27.40;99.90
24814;DHT22;12904;50.088;11.414;2023-09-12T09:43:11;27.10;99.90
24814;DHT22;12904;50.088;11.414;2023-09-12T09:45:46;27.00;99.90
24814;DHT22;12904;50.088;11.414;2023-09-12T09:48:23;26.90;99.90
24814;DHT22;12904;50.088;11.414;2023-09-12T09:50:49;26.90;99.90
24814;DHT22;12904;50.088;11.414;2023-09-12T09:53:15;27.00;99.90
24814;DHT22;12904;50.088;11.414;2023-09-12T09:55:41;27.10;99.90
24814;DHT22;12904;50.088;11.414;2023-09-12T09:58:08;27.10;99.90
24814;DHT22;12904;50.088;11.414;2023-09-12T10:00:35;27.20;99.90
24814;DHT22;12904;50.088;11.414;2023-09-12T10:03:04;27.40;99.90
24814;DHT22;12904;50.088;11.414;2023-09-12T10:05:32;27.50;99.90
24814;DHT22;12904;50.088;11.414;2023-09-12T10:07:58;27.60;99.90
24814;DHT22;12904;50.088;11.414;2023-09-12T10:10:26;27.60;99.90
24814;DHT22;12904;50.088;11.414;2023-09-12T10:12:58;27.70;99.90
24814;DHT22;12904;50.088;11.414;2023-09-12T10:15:28;27.60;99.90
24814;DHT22;12904;50.088;11.414;2023-09-12T10:17:58;27.50;99.90
24814;DHT22;12904;50.088;11.414;2023-09-12T10:20:29;27.50;99.90
24814;DHT22;12904;50.088;11.414;2023-09-12T10:25:37;27.60;99.90
24814;DHT22;12904;50.088;11.414;2023-09-12T10:28:05;27.70;99.90
24814;DHT22;12904;50.088;11.414;2023-09-12T10:30:32;27.60;99.90
24814;DHT22;12904;50.088;11.414;2023-09-12T10:33:02;27.70;99.90
24814;DHT22;12904;50.088;11.414;2023-09-12T10:35:30;27.70;99.90
24814;DHT22;12904;50.088;11.414;2023-09-12T10:38:00;27.80;99.90
24814;DHT22;12904;50.088;11.414;2023-09-12T10:40:27;27.90;99.90
24814;DHT22;12904;50.088;11.414;2023-09-12T10:42:55;27.90;99.90
24814;DHT22;12904;50.088;11.414;2023-09-12T10:45:22;28.00;99.90
24814;DHT22;12904;50.088;11.414;2023-09-12T10:47:48;28.10;99.90
24814;DHT22;12904;50.088;11.414;2023-09-12T10:50:14;28.20;99.90
24814;DHT22;12904;50.088;11.414;2023-09-12T10:52:40;28.20;99.90
24814;DHT22;12904;50.088;11.414;2023-09-12T10:55:07;28.20;99.90
24814;DHT22;12904;50.088;11.414;2023-09-12T10:57:33;28.30;99.90
24814;DHT22;12904;50.088;11.414;2023-09-12T11:02:37;28.40;99.90
24814;DHT22;12904;50.088;11.414;2023-09-12T11:05:07;28.50;98.20
24814;DHT22;12904;50.088;11.414;2023-09-12T11:07:49;28.50;97.50
24814;DHT22;12904;50.088;11.414;2023-09-12T11:10:15;28.50;94.80
24814;DHT22;12904;50.088;11.414;2023-09-12T11:12:46;28.60;96.20
24814;DHT22;12904;50.088;11.414;2023-09-12T11:15:12;28.60;93.50
24814;DHT22;12904;50.088;11.414;2023-09-12T11:17:43;28.70;94.50
24814;DHT22;12904;50.088;11.414;2023-09-12T11:20:09;28.70;94.60
24814;DHT22;12904;50.088;11.414;2023-09-12T11:22:45;28.60;92.90
24814;DHT22;12904;50.088;11.414;2023-09-12T11:25:22;28.60;92.60
24814;DHT22;12904;50.088;11.414;2023-09-12T11:30:24;28.60;93.30
24814;DHT22;12904;50.088;11.414;2023-09-12T11:33:04;28.60;93.80
24814;DHT22;12904;50.088;11.414;2023-09-12T11:35:30;28.50;93.00
24814;DHT22;12904;50.088;11.414;2023-09-12T11:38:01;28.50;92.80
24814;DHT22;12904;50.088;11.414;2023-09-12T11:42:59;28.60;92.10
24814;DHT22;12904;50.088;11.414;2023-09-12T11:45:25;28.60;91.90
24814;DHT22;12904;50.088;11.414;2023-09-12T11:47:51;28.60;91.60
24814;DHT22;12904;50.088;11.414;2023-09-12T11:50:30;28.60;90.40
24814;DHT22;12904;50.088;11.414;2023-09-12T11:53:04;28.60;92.20
24814;DHT22;12904;50.088;11.414;2023-09-12T11:55:42;28.70;91.60
24814;DHT22;12904;50.088;11.414;2023-09-12T11:58:08;28.80;93.30
24814;DHT22;12904;50.088;11.414;2023-09-12T12:00:34;29.00;92.40
24814;DHT22;12904;50.088;11.414;2023-09-12T12:03:00;29.20;90.20
24814;DHT22;12904;50.088;11.414;2023-09-12T12:05:25;29.30;88.80
24814;DHT22;12904;50.088;11.414;2023-09-12T12:07:51;29.30;88.60
24814;DHT22;12904;50.088;11.414;2023-09-12T12:10:17;29.40;88.90
24814;DHT22;12904;50.088;11.414;2023-09-12T12:12:46;29.50;86.10
24814;DHT22;12904;50.088;11.414;2023-09-12T12:15:12;29.60;90.80
24814;DHT22;12904;50.088;11.414;2023-09-12T12:17:40;29.80;84.10
24814;DHT22;12904;50.088;11.414;2023-09-12T12:20:10;29.80;89.40
24814;DHT22;12904;50.088;11.414;2023-09-12T12:22:40;29.80;85.10
24814;DHT22;12904;50.088;11.414;2023-09-12T12:25:07;29.90;81.30
24814;DHT22;12904;50.088;11.414;2023-09-12T12:27:35;30.00;79.20
24814;DHT22;12904;50.088;11.414;2023-09-12T12:30:00;30.00;82.00
24814;DHT22;12904;50.088;11.414;2023-09-12T12:32:26;30.10;79.20
24814;DHT22;12904;50.088;11.414;2023-09-12T12:34:52;30.00;77.90
24814;DHT22;12904;50.088;11.414;2023-09-12T12:37:17;30.00;79.30
24814;DHT22;12904;50.088;11.414;2023-09-12T12:39:43;30.00;76.80
24814;DHT22;12904;50.088;11.414;2023-09-12T12:42:09;30.00;77.60
24814;DHT22;12904;50.088;11.414;2023-09-12T12:44:35;30.00;76.20
24814;DHT22;12904;50.088;11.414;2023-09-12T12:47:07;30.00;78.90
24814;DHT22;12904;50.088;11.414;2023-09-12T12:49:37;30.00;76.70
24814;DHT22;12904;50.088;11.414;2023-09-12T12:52:08;30.00;75.20
24814;DHT22;12904;50.088;11.414;2023-09-12T12:54:34;30.00;76.30
24814;DHT22;12904;50.088;11.414;2023-09-12T12:57:00;30.00;74.00
24814;DHT22;12904;50.088;11.414;2023-09-12T12:59:26;30.00;75.40
24814;DHT22;12904;50.088;11.414;2023-09-12T13:01:52;30.00;75.60
24814;DHT22;12904;50.088;11.414;2023-09-12T13:04:18;30.00;76.10
24814;DHT22;12904;50.088;11.414;2023-09-12T13:06:43;30.00;73.90
24814;DHT22;12904;50.088;11.414;2023-09-12T13:09:09;30.00;71.70
24814;DHT22;12904;50.088;11.414;2023-09-12T13:11:37;30.00;73.00
24814;DHT22;12904;50.088;11.414;2023-09-12T13:14:04;30.00;72.30
24814;DHT22;12904;50.088;11.414;2023-09-12T13:16:36;30.00;70.10
24814;DHT22;12904;50.088;11.414;2023-09-12T13:19:03;29.90;72.80
24814;DHT22;12904;50.088;11.414;2023-09-12T13:21:29;29.90;71.50
24814;DHT22;12904;50.088;11.414;2023-09-12T13:23:57;29.80;72.70
24814;DHT22;12904;50.088;11.414;2023-09-12T13:26:23;29.80;73.70
24814;DHT22;12904;50.088;11.414;2023-09-12T13:28:48;29.80;72.90
24814;DHT22;12904;50.088;11.414;2023-09-12T13:31:14;29.90;73.90
24814;DHT22;12904;50.088;11.414;2023-09-12T13:33:40;29.90;73.50
24814;DHT22;12904;50.088;11.414;2023-09-12T13:36:07;29.90;71.50
24814;DHT22;12904;50.088;11.414;2023-09-12T13:38:33;29.90;71.60
24814;DHT22;12904;50.088;11.414;2023-09-12T13:40:58;29.90;71.90
24814;DHT22;12904;50.088;11.414;2023-09-12T13:43:24;29.90;71.60
24814;DHT22;12904;50.088;11.414;2023-09-12T13:45:49;29.90;71.60
24814;DHT22;12904;50.088;11.414;2023-09-12T13:48:15;29.90;71.30
24814;DHT22;12904;50.088;11.414;2023-09-12T13:50:41;30.00;73.30
24814;DHT22;12904;50.088;11.414;2023-09-12T13:53:08;30.00;74.80
24814;DHT22;12904;50.088;11.414;2023-09-12T13:55:36;30.10;71.30
24814;DHT22;12904;50.088;11.414;2023-09-12T13:58:03;30.10;70.00
24814;DHT22;12904;50.088;11.414;2023-09-12T14:00:32;30.20;69.50
24814;DHT22;12904;50.088;11.414;2023-09-12T14:02:58;30.20;71.50
24814;DHT22;12904;50.088;11.414;2023-09-12T14:05:24;30.20;71.60
24814;DHT22;12904;50.088;11.414;2023-09-12T14:07:50;30.30;69.70
24814;DHT22;12904;50.088;11.414;2023-09-12T14:10:16;30.40;70.70
24814;DHT22;12904;50.088;11.414;2023-09-12T14:12:42;30.40;69.90
24814;DHT22;12904;50.088;11.414;2023-09-12T14:15:10;30.40;71.60
24814;DHT22;12904;50.088;11.414;2023-09-12T14:17:36;30.50;69.50
24814;DHT22;12904;50.088;11.414;2023-09-12T14:20:02;30.50;70.00
24814;DHT22;12904;50.088;11.414;2023-09-12T14:22:28;30.60;68.50
24814;DHT22;12904;50.088;11.414;2023-09-12T14:24:55;30.60;70.10
24814;DHT22;12904;50.088;11.414;2023-09-12T14:27:21;30.80;70.30
24814;DHT22;12904;50.088;11.414;2023-09-12T14:29:49;30.80;65.80
24814;DHT22;12904;50.088;11.414;2023-09-12T14:32:16;30.80;67.30
24814;DHT22;12904;50.088;11.414;2023-09-12T14:34:41;30.80;69.20
24814;DHT22;12904;50.088;11.414;2023-09-12T14:37:07;30.70;68.20
24814;DHT22;12904;50.088;11.414;2023-09-12T14:39:33;30.70;67.50
24814;DHT22;12904;50.088;11.414;2023-09-12T14:41:59;30.60;66.40
24814;DHT22;12904;50.088;11.414;2023-09-12T14:44:27;30.60;68.30
24814;DHT22;12904;50.088;11.414;2023-09-12T14:46:54;30.70;68.40
24814;DHT22;12904;50.088;11.414;2023-09-12T14:49:19;30.80;68.90
24814;DHT22;12904;50.088;11.414;2023-09-12T14:51:45;30.80;66.50
24814;DHT22;12904;50.088;11.414;2023-09-12T14:54:11;30.70;66.20
24814;DHT22;12904;50.088;11.414;2023-09-12T14:56:36;30.80;67.70
24814;DHT22;12904;50.088;11.414;2023-09-12T14:59:04;30.90;67.50
24814;DHT22;12904;50.088;11.414;2023-09-12T15:01:30;30.90;67.70
24814;DHT22;12904;50.088;11.414;2023-09-12T15:03:56;30.90;66.50
24814;DHT22;12904;50.088;11.414;2023-09-12T15:06:22;30.80;61.70
24814;DHT22;12904;50.088;11.414;2023-09-12T15:08:49;30.80;67.10
24814;DHT22;12904;50.088;11.414;2023-09-12T15:11:15;30.80;64.60
24814;DHT22;12904;50.088;11.414;2023-09-12T15:13:40;30.80;62.90
24814;DHT22;12904;50.088;11.414;2023-09-12T15:16:06;30.90;63.70
24814;DHT22;12904;50.088;11.414;2023-09-12T15:18:32;30.90;64.40
24814;DHT22;12904;50.088;11.414;2023-09-12T15:20:57;30.90;62.90
24814;DHT22;12904;50.088;11.414;2023-09-12T15:23:23;30.80;64.20
24814;DHT22;12904;50.088;11.414;2023-09-12T15:25:50;30.80;64.60
24814;DHT22;12904;50.088;11.414;2023-09-12T15:28:16;30.80;63.20